Time;durP1;ratioP1;P1;durP2;ratioP2;P2;SDS_P1;SDS_P2;PMS_P1;PMS_P2;Temp;Humidity;BMP_temperature;BMP_pressure;BME280_temperature;BME280_humidity;BME280_pressure;Samples;Min_cycle;Max_cycle;Signal;HPM_P1;HPM_P2
2021/06/14 00:00:10;;;;;;;1.45;1.12;;;;;;;11.83;74.76;100831.88;1749427;82;27450;-61
2021/06/14 00:02:45;;;;;;;4.42;1.50;;;;;;;11.88;74.57;100834.98;1749039;81;25825;-61
2021/06/14 00:05:17;;;;;;;7.90;1.27;;;;;;;11.95;74.54;100833.08;1749416;82;25779;-61
2021/06/14 00:07:44;;;;;;;5.62;1.20;;;;;;;11.93;74.25;100831.02;1702687;83;25766;-61
2021/06/14 00:10:14;;;;;;;2.67;1.32;;;;;;;11.93;74.25;100831.85;1685562;85;25838;-61
2021/06/14 00:12:42;;;;;;;10.35;1.55;;;;;;;12.00;74.23;100825.43;1688178;85;27481;-61
2021/06/14 00:15:10;;;;;;;1.35;1.20;;;;;;;12.08;74.13;100827.41;1688082;85;25701;-61
2021/06/14 00:17:37;;;;;;;3.35;1.32;;;;;;;12.12;73.84;100822.06;1682477;85;25869;-61
2021/06/14 00:20:12;;;;;;;4.55;1.60;;;;;;;12.14;73.74;100825.48;1702579;84;27856;-61
2021/06/14 00:22:41;;;;;;;2.42;1.00;;;;;;;12.24;73.88;100821.42;1702073;84;25853;-61
2021/06/14 00:25:11;;;;;;;3.95;1.40;;;;;;;12.30;73.64;100820.83;1701695;84;27470;-61
2021/06/14 00:27:40;;;;;;;1.70;1.20;;;;;;;12.36;73.42;100822.94;1698739;84;25727;-61
2021/06/14 00:30:08;;;;;;;7.30;2.17;;;;;;;12.40;73.31;100826.19;1701906;84;25880;-61
2021/06/14 00:32:36;;;;;;;7.33;1.82;;;;;;;12.46;73.36;100821.57;1702070;84;25778;-60
2021/06/14 00:35:04;;;;;;;2.50;1.40;;;;;;;12.46;73.10;100818.88;1702013;84;25500;-61
2021/06/14 00:37:31;;;;;;;2.20;1.20;;;;;;;12.38;73.13;100818.25;1679550;84;27549;-61
2021/06/14 00:40:00;;;;;;;6.08;2.12;;;;;;;12.28;73.48;100810.17;1696250;84;52852;-61
2021/06/14 00:42:28;;;;;;;4.47;1.30;;;;;;;12.21;73.43;100814.45;1689801;84;25852;-60
2021/06/14 00:44:56;;;;;;;6.08;2.17;;;;;;;12.17;73.90;100815.25;1689688;84;25807;-61
2021/06/14 00:47:22;;;;;;;2.80;1.40;;;;;;;12.12;73.71;100817.54;1675680;84;25748;-61
2021/06/14 00:49:49;;;;;;;3.20;1.62;;;;;;;12.05;74.23;100811.88;1727044;82;27485;-61
2021/06/14 00:52:17;;;;;;;3.08;1.52;;;;;;;12.01;74.58;100814.48;1738998;82;25811;-61
2021/06/14 00:54:44;;;;;;;6.08;1.62;;;;;;;11.96;74.69;100814.05;1740492;81;25752;-61
2021/06/14 00:57:12;;;;;;;2.27;1.62;;;;;;;11.95;74.89;100810.16;1740199;82;25802;-61
2021/06/14 00:59:40;;;;;;;3.58;1.52;;;;;;;11.95;75.06;100808.30;1726352;82;25484;-61
2021/06/14 01:02:07;;;;;;;5.45;1.70;;;;;;;11.94;74.90;100810.64;1719966;82;27478;-61
2021/06/14 01:04:34;;;;;;;5.22;1.47;;;;;;;11.89;75.09;100811.08;1729165;82;25775;-60
2021/06/14 01:07:04;;;;;;;3.42;1.50;;;;;;;11.87;74.98;100818.48;1709154;83;25775;-61
2021/06/14 01:09:30;;;;;;;3.27;1.40;;;;;;;11.85;75.45;100821.81;1725232;82;25752;-61
2021/06/14 01:12:09;;;;;;;4.53;1.52;;;;;;;11.92;75.47;100814.48;1710610;83;25821;-61
2021/06/14 01:14:44;;;;;;;3.90;1.72;;;;;;;11.99;75.17;100811.11;1710786;83;28150;-60
2021/06/14 01:17:41;;;;;;;13.30;1.77;;;;;;;12.06;74.99;100812.70;1710447;83;25724;-61
2021/06/14 01:20:50;;;;;;;9.35;1.72;;;;;;;12.16;74.88;100810.84;1729688;82;25840;-61
2021/06/14 01:24:07;;;;;;;9.80;1.57;;;;;;;12.21;74.64;100802.31;1739907;82;25787;-61
2021/06/14 01:26:45;;;;;;;6.05;1.45;;;;;;;12.27;74.39;100802.23;1740119;82;25704;-61
2021/06/14 01:29:14;;;;;;;4.87;2.17;;;;;;;12.35;74.13;100809.09;1732588;82;27463;-61
2021/06/14 01:31:45;;;;;;;4.87;1.70;;;;;;;12.41;74.01;100808.52;1710695;83;25807;-61
2021/06/14 01:34:14;;;;;;;4.28;1.90;;;;;;;12.39;73.83;100813.69;1710613;83;25822;-61
2021/06/14 01:36:43;;;;;;;7.10;1.87;;;;;;;12.41;73.85;100809.87;1710563;82;25717;-61
2021/06/14 01:39:10;;;;;;;4.95;1.80;;;;;;;12.41;73.80;100807.17;1716583;82;25503;-61
2021/06/14 01:41:41;;;;;;;3.58;1.72;;;;;;;12.44;73.82;100796.58;1739995;82;28156;-61
2021/06/14 01:44:11;;;;;;;2.45;1.40;;;;;;;12.45;73.69;100794.23;1739973;82;25776;-61
2021/06/14 01:46:42;;;;;;;3.37;1.50;;;;;;;12.43;73.54;100792.17;1721328;82;25859;-61
2021/06/14 01:49:11;;;;;;;6.58;2.67;;;;;;;12.44;73.63;100796.06;1723769;82;26356;-61
2021/06/14 01:51:41;;;;;;;7.15;1.67;;;;;;;12.40;73.47;100790.63;1688306;82;25749;-61
2021/06/14 01:54:11;;;;;;;4.60;1.47;;;;;;;12.43;73.58;100792.17;1710282;83;27486;-61
2021/06/14 01:56:56;;;;;;;4.92;1.30;;;;;;;12.41;73.46;100782.02;1680009;83;25936;-60
2021/06/14 01:59:38;;;;;;;5.75;2.55;;;;;;;12.44;73.55;100787.14;1724534;82;25749;-61
2021/06/14 02:02:08;;;;;;;4.05;1.92;;;;;;;12.44;73.44;100779.05;1739949;81;25923;-61
2021/06/14 02:04:41;;;;;;;6.50;1.50;;;;;;;12.40;73.16;100788.41;1729392;82;25706;-61
2021/06/14 02:07:11;;;;;;;4.53;1.43;;;;;;;12.37;73.35;100780.96;1712984;83;27556;-61
2021/06/14 02:09:40;;;;;;;6.92;1.75;;;;;;;12.41;73.51;100791.47;1728618;82;25733;-61
2021/06/14 02:12:09;;;;;;;8.80;1.47;;;;;;;12.41;73.43;100796.38;1740297;82;25791;-61
2021/06/14 02:14:40;;;;;;;5.15;2.05;;;;;;;12.43;73.58;100792.17;1740090;82;26466;-61
2021/06/14 02:17:13;;;;;;;3.47;1.70;;;;;;;12.46;73.72;100795.94;1721062;82;25855;-61
2021/06/14 02:19:43;;;;;;;5.85;1.67;;;;;;;12.48;73.48;100796.63;1723972;82;28210;-61
2021/06/14 02:22:14;;;;;;;8.33;2.08;;;;;;;12.52;73.56;100796.17;1735601;80;25781;-60
2021/06/14 02:24:42;;;;;;;12.13;2.20;;;;;;;12.59;73.70;100796.44;1746963;82;25717;-61
2021/06/14 02:27:13;;;;;;;5.90;2.37;;;;;;;12.64;73.55;100803.58;1747162;82;25685;-61
2021/06/14 02:29:40;;;;;;;8.60;1.80;;;;;;;12.68;73.53;100800.11;1725283;82;25794;-61
2021/06/14 02:32:08;;;;;;;5.87;1.95;;;;;;;12.70;73.12;100794.03;1669397;84;27753;-61
2021/06/14 02:34:38;;;;;;;3.77;2.08;;;;;;;12.72;73.03;100801.48;1654423;86;25743;-60
2021/06/14 02:37:07;;;;;;;8.28;2.47;;;;;;;12.76;72.86;100794.80;1655017;86;25788;-61
2021/06/14 02:39:36;;;;;;;9.08;2.52;;;;;;;12.80;72.79;100798.05;1648771;85;26003;-61
2021/06/14 02:42:07;;;;;;;12.45;2.10;;;;;;;12.80;72.69;100796.70;1677178;85;25789;-61
2021/06/14 02:44:34;;;;;;;15.93;2.50;;;;;;;12.79;72.61;100798.53;1746951;81;28246;-61
2021/06/14 02:47:08;;;;;;;7.25;2.08;;;;;;;12.78;72.41;100792.78;1745601;80;25754;-61
2021/06/14 02:49:37;;;;;;;10.30;2.70;;;;;;;12.76;72.47;100799.34;1712551;83;25784;-61
2021/06/14 02:52:10;;;;;;;14.15;3.33;;;;;;;12.73;72.46;100792.91;1712895;83;26462;-61
2021/06/14 02:54:58;;;;;;;5.47;2.95;;;;;;;12.70;72.34;100795.38;1712776;83;25736;-60
2021/06/14 02:57:29;;;;;;;7.17;3.10;;;;;;;12.62;72.24;100791.23;1713061;83;28217;-61
2021/06/14 02:59:57;;;;;;;9.08;3.72;;;;;;;12.53;72.23;100795.69;1712491;82;25796;-61
2021/06/14 03:02:27;;;;;;;4.95;2.90;;;;;;;12.40;72.30;100791.11;1712731;83;25488;-61
2021/06/14 03:04:56;;;;;;;8.88;2.30;;;;;;;12.24;72.75;100799.84;1724272;82;25768;-61
2021/06/14 03:07:27;;;;;;;9.95;2.10;;;;;;;12.14;74.04;100798.51;1736923;81;25710;-61
2021/06/14 03:09:54;;;;;;;4.20;2.20;;;;;;;12.02;74.21;100800.02;1736873;82;28158;-61
2021/06/14 03:12:26;;;;;;;9.50;2.60;;;;;;;11.96;74.60;100796.53;1710265;82;25724;-61
2021/06/14 03:14:54;;;;;;;8.45;2.05;;;;;;;11.89;75.24;100796.25;1669467;84;25649;-61
2021/06/14 03:17:23;;;;;;;7.75;1.92;;;;;;;11.88;75.32;100795.89;1654707;86;25829;-61
2021/06/14 03:19:53;;;;;;;24.10;15.80;;;;;;;11.88;75.69;100800.45;1655040;86;26068;-61
2021/06/14 03:22:20;;;;;;;7.70;2.25;;;;;;;11.95;75.99;100799.37;1653659;85;27514;-61
2021/06/14 03:24:47;;;;;;;3.87;1.92;;;;;;;12.00;76.46;100793.94;1712903;83;25697;-61
2021/06/14 03:27:17;;;;;;;7.90;1.98;;;;;;;12.07;77.04;100794.19;1712787;83;25698;-60
2021/06/14 03:29:48;;;;;;;3.62;2.10;;;;;;;12.16;76.62;100794.66;1717391;81;26498;-60
2021/06/14 03:32:16;;;;;;;5.33;1.77;;;;;;;12.22;76.87;100790.53;1683686;85;25810;-60
2021/06/14 03:34:44;;;;;;;3.05;1.82;;;;;;;12.31;76.54;100791.52;1676081;85;27480;-61
2021/06/14 03:37:12;;;;;;;10.78;2.37;;;;;;;12.46;76.86;100795.94;1669324;85;25525;-61
2021/06/14 03:39:40;;;;;;;4.60;1.70;;;;;;;12.56;76.81;100789.98;1669193;85;25853;-61
2021/06/14 03:42:09;;;;;;;6.83;1.90;;;;;;;12.60;77.06;100787.83;1658868;85;25762;-61
2021/06/14 03:44:37;;;;;;;7.75;1.95;;;;;;;12.56;77.36;100787.80;1640696;87;25829;-61
2021/06/14 03:47:05;;;;;;;3.90;1.98;;;;;;;12.51;77.61;100788.23;1656100;84;27466;-60
2021/06/14 03:49:32;;;;;;;9.40;2.50;;;;;;;12.55;77.90;100783.39;1684177;85;25793;-61
2021/06/14 03:52:00;;;;;;;18.70;6.65;;;;;;;12.63;77.75;100780.80;1685113;85;25780;-61
2021/06/14 03:54:27;;;;;;;8.25;2.92;;;;;;;12.71;78.19;100780.89;1721437;83;25798;-61
2021/06/14 03:56:54;;;;;;;8.78;2.65;;;;;;;12.81;77.60;100780.34;1667222;85;25805;-61
2021/06/14 03:59:21;;;;;;;4.20;2.70;;;;;;;12.92;77.82;100781.98;1647275;85;27509;-61
2021/06/14 04:01:49;;;;;;;9.38;2.40;;;;;;;13.02;77.62;100773.84;1650586;85;25862;-61
2021/06/14 04:04:33;;;;;;;7.78;2.35;;;;;;;13.12;77.35;100769.22;1663205;85;25742;-60
2021/06/14 04:06:49;;;;;;;8.60;2.17;;;;;;;13.25;77.17;100774.73;1668380;84;32990;-61
2021/06/14 04:09:16;;;;;;;10.78;2.25;;;;;;;13.36;76.92;100774.51;1648755;85;26480;-62
2021/06/14 04:11:43;;;;;;;6.60;1.77;;;;;;;13.46;76.61;100769.91;1710709;83;27465;-61
2021/06/14 04:14:11;;;;;;;4.50;1.98;;;;;;;13.61;76.38;100776.10;1694322;83;25550;-62
2021/06/14 04:16:38;;;;;;;13.45;2.37;;;;;;;13.73;76.10;100772.16;1712721;83;26239;-61
2021/06/14 04:19:05;;;;;;;7.20;2.30;;;;;;;13.86;75.60;100772.23;1715434;81;25798;-62
2021/06/14 04:21:32;;;;;;;5.20;2.05;;;;;;;13.92;75.08;100779.22;1687141;82;25733;-62
2021/06/14 04:24:06;;;;;;;5.70;2.10;;;;;;;14.09;75.02;100782.89;1683122;85;27497;-63
2021/06/14 04:26:37;;;;;;;7.30;2.72;;;;;;;14.24;74.82;100783.16;1683125;84;25741;-64
2021/06/14 04:29:05;;;;;;;5.62;2.10;;;;;;;14.38;74.27;100780.37;1682976;84;25797;-60
2021/06/14 04:31:32;;;;;;;4.75;2.60;;;;;;;14.51;73.99;100775.86;1681366;85;25773;-62
2021/06/14 04:33:59;;;;;;;6.72;2.08;;;;;;;14.61;73.64;100774.38;1654008;86;25759;-62
2021/06/14 04:36:26;;;;;;;15.23;3.15;;;;;;;14.73;73.30;100772.77;1675837;85;27494;-62
2021/06/14 04:38:53;;;;;;;9.78;2.70;;;;;;;14.75;72.97;100775.64;1675783;85;26413;-62
2021/06/14 04:41:20;;;;;;;6.55;3.10;;;;;;;14.79;73.17;100778.34;1688975;82;25832;-61
2021/06/14 04:43:48;;;;;;;6.35;1.85;;;;;;;14.87;72.89;100777.54;1705711;84;25859;-61
2021/06/14 04:46:15;;;;;;;2.98;1.90;;;;;;;14.97;72.59;100776.90;1705730;82;25654;-62
2021/06/14 04:48:42;;;;;;;8.35;2.50;;;;;;;15.03;71.91;100782.17;1705786;83;27533;-61
2021/06/14 04:51:09;;;;;;;4.25;2.00;;;;;;;15.07;71.69;100788.09;1705107;84;25753;-61
2021/06/14 04:53:37;;;;;;;8.48;2.20;;;;;;;15.14;71.70;100783.22;1705661;84;25802;-61
2021/06/14 04:56:05;;;;;;;6.40;2.10;;;;;;;15.25;71.67;100777.98;1705753;84;25920;-61
2021/06/14 04:58:32;;;;;;;5.08;2.80;;;;;;;15.31;70.81;100778.66;1705772;84;25759;-60
2021/06/14 05:00:59;;;;;;;8.53;2.67;;;;;;;15.39;70.84;100779.19;1705760;84;27480;-60
2021/06/14 05:03:26;;;;;;;6.62;2.20;;;;;;;15.49;71.09;100783.08;1705924;84;25773;-61
2021/06/14 05:05:52;;;;;;;5.00;2.10;;;;;;;15.60;70.81;100778.69;1705350;83;25720;-61
2021/06/14 05:08:19;;;;;;;8.00;2.15;;;;;;;15.70;69.87;100775.80;1705906;84;25834;-61
2021/06/14 05:10:48;;;;;;;3.17;1.75;;;;;;;15.71;69.47;100783.44;1706090;84;25703;-61
2021/06/14 05:13:17;;;;;;;4.97;2.37;;;;;;;15.70;69.51;100783.09;1705784;84;27455;-61
2021/06/14 05:15:44;;;;;;;6.58;2.22;;;;;;;15.63;69.24;100783.78;1705881;84;26014;-61
2021/06/14 05:18:12;;;;;;;11.73;2.10;;;;;;;15.60;69.29;100784.11;1705604;84;25734;-61
2021/06/14 05:20:39;;;;;;;16.12;6.35;;;;;;;15.68;69.35;100783.77;1705715;84;25711;-62
2021/06/14 05:23:11;;;;;;;5.92;2.77;;;;;;;15.73;69.38;100788.19;1704163;84;26089;-60
2021/06/14 05:25:38;;;;;;;4.75;2.45;;;;;;;15.72;69.45;100783.78;1703817;84;28727;-60
2021/06/14 05:28:06;;;;;;;12.63;2.72;;;;;;;15.73;69.21;100784.12;1703715;84;25811;-60
2021/06/14 05:30:35;;;;;;;10.43;2.17;;;;;;;15.70;69.46;100788.52;1714386;82;25755;-62
2021/06/14 05:33:02;;;;;;;10.53;2.02;;;;;;;15.67;69.49;100788.36;1703004;84;26714;-60
2021/06/14 05:35:29;;;;;;;4.92;2.20;;;;;;;15.62;69.75;100792.93;1723762;82;26370;-60
2021/06/14 05:37:56;;;;;;;9.60;1.98;;;;;;;15.64;70.03;100800.89;1729470;82;27533;-60
2021/06/14 05:40:23;;;;;;;10.88;2.05;;;;;;;15.63;69.96;100801.90;1698159;84;25727;-60
2021/06/14 05:42:50;;;;;;;50.35;3.42;;;;;;;15.67;69.98;100809.19;1693144;84;25757;-60
2021/06/14 05:45:18;;;;;;;6.25;2.30;;;;;;;15.70;69.92;100807.50;1703772;82;25838;-61
2021/06/14 05:47:45;;;;;;;7.30;1.67;;;;;;;15.73;69.79;100805.30;1710430;82;25822;-60
2021/06/14 05:50:13;;;;;;;10.80;1.80;;;;;;;15.72;69.93;100812.25;1732909;82;29597;-60
2021/06/14 05:52:40;;;;;;;6.33;1.75;;;;;;;15.75;70.06;100811.41;1732867;82;25516;-61
2021/06/14 05:55:09;;;;;;;8.90;3.10;;;;;;;15.79;69.89;100813.27;1732897;82;25707;-61
2021/06/14 05:57:36;;;;;;;11.08;1.95;;;;;;;15.83;70.00;100815.96;1733106;82;25817;-62
2021/06/14 06:00:09;;;;;;;6.67;2.42;;;;;;;15.87;70.24;100820.08;1705722;82;25793;-62
2021/06/14 06:02:37;;;;;;;9.03;2.00;;;;;;;15.93;70.07;100814.48;1708657;82;27595;-62
2021/06/14 06:05:07;;;;;;;6.53;3.25;;;;;;;15.96;69.68;100820.41;1682050;83;25514;-62
2021/06/14 06:07:38;;;;;;;6.58;2.45;;;;;;;16.02;69.70;100829.74;1685216;83;25770;-62
2021/06/14 06:10:08;;;;;;;5.40;2.62;;;;;;;16.03;69.64;100821.94;1686380;83;25999;-62
2021/06/14 06:12:35;;;;;;;8.98;1.92;;;;;;;16.06;69.37;100822.10;1675274;84;25846;-62
2021/06/14 06:15:08;;;;;;;14.20;2.15;;;;;;;16.15;69.23;100824.28;1687610;85;27643;-62
2021/06/14 06:17:35;;;;;;;7.95;2.12;;;;;;;16.19;69.09;100825.12;1687695;85;26121;-62
2021/06/14 06:20:07;;;;;;;10.38;2.20;;;;;;;16.24;68.81;100821.41;1687776;83;25747;-62
2021/06/14 06:22:35;;;;;;;9.23;1.77;;;;;;;16.32;68.82;100812.90;1678804;83;25790;-62
2021/06/14 06:25:09;;;;;;;12.10;2.47;;;;;;;16.47;68.57;100822.02;1678031;83;25811;-62
2021/06/14 06:27:36;;;;;;;;;;;;;;;16.46;68.01;100823.03;1685476;83;27464;-63
2021/06/14 06:30:08;;;;;;;7.08;2.25;;;;;;;16.42;68.25;100818.98;1682634;84;25753;-62
2021/06/14 06:32:35;;;;;;;6.40;1.72;;;;;;;16.42;68.09;100823.89;1770787;80;26383;-63
2021/06/14 06:35:05;;;;;;;11.12;2.42;;;;;;;16.47;68.04;100823.37;1732633;82;26169;-64
2021/06/14 06:37:36;;;;;;;6.03;2.05;;;;;;;16.58;67.69;100821.66;1736877;80;25783;-63
2021/06/14 06:40:07;;;;;;;8.53;1.80;;;;;;;16.74;67.76;100826.69;1732989;80;26023;-62
2021/06/14 06:42:36;;;;;;;7.80;2.00;;;;;;;16.88;67.35;100817.81;1757206;80;25765;-63
2021/06/14 06:45:06;;;;;;;12.47;1.85;;;;;;;17.06;67.07;100818.09;1760433;80;25805;-61
2021/06/14 06:47:34;;;;;;;3.77;1.87;;;;;;;17.21;67.35;100816.30;1757014;80;25776;-61
2021/06/14 06:50:04;;;;;;;3.12;1.50;;;;;;;17.35;66.80;100817.41;1749256;80;25716;-62
2021/06/14 06:52:32;;;;;;;4.70;1.77;;;;;;;17.48;66.49;100815.98;1753064;80;28296;-63
2021/06/14 06:54:59;;;;;;;5.83;1.75;;;;;;;17.65;66.30;100808.53;1755744;80;25727;-60
2021/06/14 06:57:26;;;;;;;7.87;1.75;;;;;;;17.87;65.63;100815.51;1746473;80;25744;-62
2021/06/14 06:59:53;;;;;;;6.22;1.70;;;;;;;18.08;64.67;100817.03;1756944;80;25791;-60
2021/06/14 07:02:20;;;;;;;4.55;1.57;;;;;;;18.19;64.23;100818.97;1752920;80;25823;-62
2021/06/14 07:04:47;;;;;;;6.42;1.67;;;;;;;18.30;62.02;100815.80;1754907;80;28283;-61
2021/06/14 07:07:14;;;;;;;4.58;1.90;;;;;;;18.34;61.03;100814.38;1758624;80;26669;-61
2021/06/14 07:09:41;;;;;;;6.22;1.92;;;;;;;18.22;61.14;100809.09;1740182;80;25680;-61
2021/06/14 07:12:09;;;;;;;4.30;2.00;;;;;;;18.11;61.76;100823.97;1748750;80;26450;-61
2021/06/14 07:14:36;;;;;;;8.10;1.90;;;;;;;18.13;61.91;100826.86;1760130;80;25611;-61
2021/06/14 07:17:04;;;;;;;6.30;1.40;;;;;;;18.20;61.47;100829.67;1755782;80;27102;-61
2021/06/14 07:19:31;;;;;;;4.67;1.65;;;;;;;18.22;61.61;100828.14;1751700;80;25752;-61
2021/06/14 07:21:58;;;;;;;3.65;1.77;;;;;;;18.12;61.67;100830.61;1709580;83;25790;-61
2021/06/14 07:24:25;;;;;;;2.95;1.90;;;;;;;18.08;62.24;100834.72;1746063;81;26531;-61
2021/06/14 07:26:52;;;;;;;4.05;1.70;;;;;;;18.14;62.43;100835.86;1735316;81;26284;-61
2021/06/14 07:29:19;;;;;;;5.35;1.90;;;;;;;18.26;62.14;100834.39;1756640;80;28172;-61
2021/06/14 07:31:46;;;;;;;3.40;1.62;;;;;;;18.38;62.44;100831.20;1743005;80;25751;-61
2021/06/14 07:34:13;;;;;;;8.35;2.20;;;;;;;18.58;62.27;100838.32;1731535;80;25699;-61
2021/06/14 07:36:41;;;;;;;3.40;1.40;;;;;;;18.77;61.48;100832.31;1735986;82;25823;-61
2021/06/14 07:39:09;;;;;;;2.35;1.30;;;;;;;18.89;60.99;100834.53;1738912;80;25625;-61
2021/06/14 07:41:36;;;;;;;3.62;1.45;;;;;;;19.04;60.39;100843.59;1733206;81;27482;-61
2021/06/14 07:44:04;;;;;;;4.10;1.50;;;;;;;19.18;59.37;100837.78;1719559;80;25810;-61
2021/06/14 07:46:32;;;;;;;4.22;1.32;;;;;;;19.26;58.51;100834.08;1731701;80;25814;-61
2021/06/14 07:48:59;;;;;;;6.15;1.30;;;;;;;19.24;57.50;100837.51;1737860;80;25762;-61
2021/06/14 07:51:26;;;;;;;5.15;1.25;;;;;;;19.22;57.42;100829.53;1733281;80;25791;-61
2021/06/14 07:53:53;;;;;;;4.53;1.42;;;;;;;19.22;57.86;100830.89;1728890;80;27449;-61
2021/06/14 07:56:22;;;;;;;4.62;1.40;;;;;;;19.34;56.55;100825.77;1701217;84;25524;-61
2021/06/14 07:58:49;;;;;;;2.10;1.30;;;;;;;19.30;57.20;100826.35;1701470;84;25471;-61
2021/06/14 08:01:16;;;;;;;6.70;1.67;;;;;;;19.38;57.38;100835.27;1715209;80;26450;-61
2021/06/14 08:03:47;;;;;;;7.97;1.92;;;;;;;19.36;57.63;100833.25;1733082;82;25750;-61
2021/06/14 08:06:13;;;;;;;3.10;1.42;;;;;;;19.32;58.19;100834.66;1744003;82;28108;-61
2021/06/14 08:08:40;;;;;;;5.08;1.35;;;;;;;19.42;57.19;100824.81;1743583;80;25807;-61
2021/06/14 08:11:08;;;;;;;3.35;1.30;;;;;;;19.50;57.05;100826.56;1743903;80;25837;-61
2021/06/14 08:13:35;;;;;;;4.58;1.22;;;;;;;19.59;55.77;100827.30;1772504;80;26224;-62
2021/06/14 08:16:03;;;;;;;3.27;1.42;;;;;;;19.77;54.53;100829.05;1772693;80;25806;-61
2021/06/14 08:18:44;;;;;;;3.37;1.27;;;;;;;19.87;53.58;100816.45;1757151;80;27475;-61
2021/06/14 08:21:26;;;;;;;6.53;1.57;;;;;;;19.88;54.02;100824.13;1769885;80;25920;-61
2021/06/14 08:26:30;;;;;;;4.30;1.70;;;;;;;20.15;53.01;100828.77;1754017;81;26513;-61
2021/06/14 08:28:59;;;;;;;1.95;1.12;;;;;;;20.35;53.82;100828.59;1754106;81;25699;-61
2021/06/14 08:31:30;;;;;;;2.58;1.15;;;;;;;20.60;51.66;100828.97;1748556;81;26898;-61
2021/06/14 08:33:57;;;;;;;3.55;1.40;;;;;;;20.60;51.94;100833.06;1732699;82;26447;-61
2021/06/14 08:36:25;;;;;;;6.00;1.30;;;;;;;20.67;51.27;100843.51;1732958;82;25663;-61
2021/06/14 08:38:53;;;;;;;4.75;1.20;;;;;;;20.60;50.83;100836.63;1733109;82;25791;-61
2021/06/14 08:41:23;;;;;;;3.00;1.25;;;;;;;20.67;51.38;100839.91;1755756;80;25962;-61
2021/06/14 08:43:54;;;;;;;2.83;1.47;;;;;;;20.65;51.23;100840.13;1752523;80;27449;-61
2021/06/14 08:46:20;;;;;;;1.67;1.22;;;;;;;20.74;51.18;100847.69;1753973;80;25854;-61
2021/06/14 08:48:51;;;;;;;4.97;0.90;;;;;;;20.86;49.78;100850.15;1752630;80;25719;-61
2021/06/14 08:51:19;;;;;;;3.62;1.25;;;;;;;20.85;48.23;100851.19;1750776;80;27832;-62
2021/06/14 08:53:51;;;;;;;3.12;1.30;;;;;;;20.60;49.24;100854.39;1756433;80;25774;-61
2021/06/14 08:56:16;;;;;;;6.30;1.52;;;;;;;20.58;50.31;100857.02;1758866;80;27514;-61
2021/06/14 08:58:43;;;;;;;2.67;1.22;;;;;;;20.59;50.71;100863.63;1777481;80;25797;-61
2021/06/14 09:01:10;;;;;;;7.15;1.30;;;;;;;20.69;51.83;100859.70;1772390;80;25457;-61
2021/06/14 09:03:37;;;;;;;2.62;1.20;;;;;;;20.76;52.27;100858.73;1755515;80;25804;-61
2021/06/14 09:06:05;;;;;;;4.95;1.15;;;;;;;21.05;49.99;100854.55;1729893;80;25539;-62
2021/06/14 09:08:32;;;;;;;3.20;1.65;;;;;;;21.39;50.50;100849.53;1758038;80;27593;-61
2021/06/14 09:10:59;;;;;;;8.05;1.45;;;;;;;21.65;50.44;100854.77;1745763;80;25923;-61
2021/06/14 09:13:33;;;;;;;6.20;1.30;;;;;;;21.80;49.29;100854.59;1745538;80;25783;-61
2021/06/14 09:16:15;;;;;;;11.48;1.92;;;;;;;21.96;49.74;100860.70;1750009;80;26517;-61
2021/06/14 09:18:44;;;;;;;1.67;0.90;;;;;;;22.28;48.45;100852.68;1714754;83;25716;-62
2021/06/14 09:21:14;;;;;;;3.45;0.90;;;;;;;22.33;47.31;100855.10;1714383;83;27464;-61
2021/06/14 09:24:05;;;;;;;3.62;0.98;;;;;;;22.49;46.16;100867.56;1709482;82;25722;-61
2021/06/14 09:26:47;;;;;;;6.05;0.80;;;;;;;22.75;42.87;100853.48;1699700;83;25634;-61
2021/06/14 09:29:15;;;;;;;4.83;1.02;;;;;;;22.71;44.51;100863.20;1698231;83;25810;-61
2021/06/14 09:31:52;;;;;;;6.15;1.15;;;;;;;22.92;43.88;100848.88;1699662;84;25705;-61
2021/06/14 09:34:35;;;;;;;9.08;1.30;;;;;;;23.14;43.92;100855.78;1695468;83;27429;-61
2021/06/14 09:37:07;;;;;;;3.08;1.17;;;;;;;23.23;42.93;100856.93;1699495;83;25816;-62
2021/06/14 09:39:43;;;;;;;2.92;1.20;;;;;;;23.16;43.55;100859.66;1699793;84;25753;-62
2021/06/14 09:42:19;;;;;;;5.53;1.05;;;;;;;23.18;44.33;100863.07;1699633;84;25786;-62
2021/06/14 09:44:50;;;;;;;4.85;1.30;;;;;;;23.10;44.44;100861.38;1699233;83;25856;-62
2021/06/14 09:47:19;;;;;;;1.87;0.80;;;;;;;23.11;43.65;100857.57;1703480;82;27435;-62
2021/06/14 09:49:59;;;;;;;2.35;1.05;;;;;;;22.78;43.35;100867.28;1731834;82;25823;-61
2021/06/14 09:52:25;;;;;;;4.03;1.00;;;;;;;22.51;44.48;100866.83;1731409;82;25839;-61
2021/06/14 09:54:53;;;;;;;5.65;1.30;;;;;;;22.41;44.31;100862.30;1715591;81;25798;-60
2021/06/14 09:57:26;;;;;;;3.30;0.80;;;;;;;22.16;44.84;100856.08;1702047;81;25733;-60
2021/06/14 09:59:55;;;;;;;2.95;1.75;;;;;;;21.93;45.67;100861.11;1741269;81;28255;-61
2021/06/14 10:02:23;;;;;;;2.52;0.85;;;;;;;21.84;45.89;100865.97;1726038;81;25743;-60
2021/06/14 10:04:53;;;;;;;10.95;0.98;;;;;;;21.97;46.18;100863.77;1725336;81;25798;-59
2021/06/14 10:07:22;;;;;;;3.95;0.90;;;;;;;22.14;46.33;100855.45;1693822;83;26405;-59
2021/06/14 10:09:52;;;;;;;1.80;1.42;;;;;;;22.20;45.36;100855.13;1693832;84;25780;-59
2021/06/14 10:12:27;;;;;;;6.60;1.30;;;;;;;22.52;44.29;100852.58;1693926;83;27457;-59
2021/06/14 10:14:59;;;;;;;2.95;0.88;;;;;;;22.43;44.63;100855.23;1694077;84;25777;-59
2021/06/14 10:17:41;;;;;;;4.97;1.10;;;;;;;22.05;44.87;100867.13;1690421;83;25703;-60
2021/06/14 10:20:22;;;;;;;1.23;1.07;;;;;;;21.91;45.18;100869.55;1694012;83;25845;-60
2021/06/14 10:22:52;;;;;;;2.55;0.75;;;;;;;21.73;45.33;100870.17;1723139;82;25751;-59
2021/06/14 10:25:22;;;;;;;2.25;0.95;;;;;;;21.60;45.96;100865.52;1732976;82;27472;-59
2021/06/14 10:27:51;;;;;;;11.05;1.00;;;;;;;21.54;46.22;100875.87;1734817;82;25944;-60
2021/06/14 10:30:21;;;;;;;2.17;1.00;;;;;;;21.33;46.90;100875.49;1735354;82;25743;-60
2021/06/14 10:32:49;;;;;;;8.58;0.82;;;;;;;21.28;46.81;100879.38;1734910;82;26448;-60
2021/06/14 10:35:19;;;;;;;5.42;1.02;;;;;;;21.13;46.99;100883.09;1735012;82;25482;-61
2021/06/14 10:37:53;;;;;;;2.85;0.95;;;;;;;21.00;47.19;100878.94;1734716;82;28324;-60
2021/06/14 10:40:26;;;;;;;1.00;0.80;;;;;;;21.03;47.33;100876.64;1735478;82;25940;-61
2021/06/14 10:42:55;;;;;;;1.30;1.10;;;;;;;21.00;47.37;100878.94;1735478;82;25766;-60
2021/06/14 10:45:26;;;;;;;2.87;1.47;;;;;;;20.84;47.31;100878.23;1735568;82;25799;-60
2021/06/14 10:47:56;;;;;;;1.67;0.75;;;;;;;20.62;48.24;100879.64;1747419;81;25666;-60
2021/06/14 10:50:27;;;;;;;1.07;0.93;;;;;;;20.48;48.99;100886.07;1768303;81;27379;-59
2021/06/14 10:52:55;;;;;;;7.12;1.10;;;;;;;20.45;49.34;100889.19;1735777;80;25848;-59
2021/06/14 10:55:29;;;;;;;8.13;1.10;;;;;;;20.52;49.52;100881.88;1714694;83;25788;-60
2021/06/14 10:57:56;;;;;;;4.78;1.60;;;;;;;20.69;49.58;100882.93;1714625;83;25762;-60
2021/06/14 11:00:28;;;;;;;2.00;1.07;;;;;;;21.23;49.34;100881.36;1714872;83;25723;-61
2021/06/14 11:03:02;;;;;;;12.75;2.25;;;;;;;21.59;48.80;100876.14;1714441;83;27508;-59
2021/06/14 11:05:37;;;;;;;5.58;1.45;;;;;;;22.20;47.70;100880.62;1735274;82;25850;-60
2021/06/14 11:08:21;;;;;;;2.67;1.10;;;;;;;22.14;46.59;100882.02;1737371;82;25954;-59
2021/06/14 11:11:04;;;;;;;2.70;1.07;;;;;;;21.61;47.66;100886.34;1714866;83;26452;-61
2021/06/14 11:13:31;;;;;;;2.00;1.02;;;;;;;20.97;48.84;100894.37;1716839;82;25800;-61
2021/06/14 11:16:01;;;;;;;1.52;0.70;;;;;;;20.37;50.98;100901.64;1714560;83;27455;-61
2021/06/14 11:18:32;;;;;;;3.50;1.00;;;;;;;20.08;53.31;100908.95;1732918;81;25662;-61
2021/06/14 11:21:19;;;;;;;4.47;1.20;;;;;;;19.82;54.64;100913.08;1744464;81;25489;-61
2021/06/14 11:23:49;;;;;;;1.27;0.98;;;;;;;19.65;55.68;100919.28;1727735;82;25843;-61
2021/06/14 11:26:29;;;;;;;3.80;0.98;;;;;;;19.37;56.34;100914.55;1721982;81;25819;-60
2021/06/14 11:28:59;;;;;;;3.50;1.12;;;;;;;19.20;57.40;100913.41;1719468;83;27465;-60
2021/06/14 11:31:30;;;;;;;3.87;1.05;;;;;;;19.26;58.19;100909.61;1719538;83;25712;-61
2021/06/14 11:34:02;;;;;;;4.35;1.07;;;;;;;19.31;58.68;100909.87;1719535;83;25694;-60
2021/06/14 11:36:32;;;;;;;1.98;1.00;;;;;;;19.30;58.96;100913.12;1721972;81;25775;-61
2021/06/14 11:39:15;;;;;;;1.77;1.22;;;;;;;19.15;59.33;100919.95;1719433;83;26128;-61